Terminal Aerodrome Forecast
Issued by NWS

Home | Current Version | Previous Version | Text Only | Print | Product List | Glossary On
Versions: 1 2 3 4 5 6 7 8 9 10 11 12 13 14 15 16 17 18 19 20 21 22 23 24 25 26 27 28 29
000
FTUS44 KHGX 211722
TAFLBX
TAF
KLBX 211722Z 2118/2218 12006KT P6SM VCSH SCT040 SCT250
     FM212100 12009KT P6SM FEW050 SCT250
     FM220200 14006KT P6SM FEW025 FEW250
     FM221400 15004KT P6SM SCT025
     FM221600 15004KT P6SM VCSH SCT035 SCT250=

USA.gov is the U.S. government's official web portal to all federal, state and local government web resources and services.